Time;durP1;ratioP1;P1;durP2;ratioP2;P2;SDS_P1;SDS_P2;PMS_P1;PMS_P2;Temp;Humidity;BMP_temperature;BMP_pressure;BME280_temperature;BME280_humidity;BME280_pressure;Samples;Min_cycle;Max_cycle;Signal;HPM_P1;HPM_P2
2023/03/31 00:01:51;;;;;;;5.07;1.67;;;;;;;11.69;100.00;99199.28;5037959;28;20491;-67
2023/03/31 00:04:22;;;;;;;3.60;1.23;;;;;;;11.56;100.00;99193.66;5042523;28;20792;-67
2023/03/31 00:06:52;;;;;;;4.53;1.60;;;;;;;11.77;100.00;99185.88;5037205;28;20473;-67
2023/03/31 00:09:20;;;;;;;2.50;1.00;;;;;;;11.69;100.00;99183.22;5046672;28;20497;-68
2023/03/31 00:11:48;;;;;;;3.47;1.80;;;;;;;11.57;100.00;99187.31;5039306;28;20601;-67
2023/03/31 00:14:18;;;;;;;7.40;1.90;;;;;;;11.48;100.00;99181.16;5035861;28;20865;-67
2023/03/31 00:16:45;;;;;;;3.13;2.17;;;;;;;11.47;100.00;99169.63;5035931;28;20509;-68
2023/03/31 00:19:16;;;;;;;3.63;1.67;;;;;;;11.46;100.00;99180.50;5045044;28;20464;-68
2023/03/31 00:21:43;;;;;;;4.33;1.73;;;;;;;11.23;100.00;99180.38;5033222;28;20488;-68
2023/03/31 00:24:12;;;;;;;3.83;1.60;;;;;;;11.36;100.00;99174.50;5036496;28;20457;-68
2023/03/31 00:26:39;;;;;;;4.33;1.60;;;;;;;11.36;100.00;99174.50;5034894;28;20478;-67
2023/03/31 00:29:10;;;;;;;4.67;1.43;;;;;;;11.31;100.00;99167.81;5042852;28;20532;-67
2023/03/31 00:31:37;;;;;;;5.83;1.50;;;;;;;11.21;100.00;99159.13;5049123;28;20483;-68
2023/03/31 00:34:04;;;;;;;4.67;2.13;;;;;;;11.01;100.00;99161.38;5047816;28;20455;-68
2023/03/31 00:36:31;;;;;;;3.30;1.50;;;;;;;11.19;100.00;99160.31;5037145;28;20481;-67
2023/03/31 00:38:59;;;;;;;4.73;1.60;;;;;;;11.04;100.00;99157.50;5042807;28;20589;-68
2023/03/31 00:41:28;;;;;;;3.50;1.60;;;;;;;11.17;100.00;99152.47;5040844;28;20493;-68
2023/03/31 00:44:11;;;;;;;7.97;2.60;;;;;;;11.26;100.00;99146.06;5035500;28;20743;-70
2023/03/31 00:46:41;;;;;;;4.13;2.30;;;;;;;11.30;100.00;99142.06;5044676;28;20484;-70
2023/03/31 00:49:13;;;;;;;5.93;3.10;;;;;;;11.11;100.00;99129.91;5041576;28;20966;-69
2023/03/31 00:51:39;;;;;;;5.50;3.10;;;;;;;11.09;100.00;99123.06;5033812;28;20926;-69
2023/03/31 00:54:07;;;;;;;5.80;3.13;;;;;;;11.10;100.00;99125.56;5037785;28;20454;-69
2023/03/31 00:56:37;;;;;;;9.43;3.43;;;;;;;11.16;100.00;99124.03;5040768;28;20508;-69
2023/03/31 00:59:07;;;;;;;6.17;2.63;;;;;;;11.05;100.00;99122.56;5041911;28;20536;-70
2023/03/31 01:01:35;;;;;;;5.10;3.10;;;;;;;10.71;100.00;99115.63;5042616;28;20572;-69
2023/03/31 01:04:02;;;;;;;6.43;3.03;;;;;;;10.85;100.00;99119.47;5048852;28;20451;-67
2023/03/31 01:06:29;;;;;;;4.83;2.20;;;;;;;10.90;100.00;99111.75;5041008;28;20568;-68
2023/03/31 01:08:56;;;;;;;5.70;2.37;;;;;;;10.77;100.00;99110.63;5033332;28;20485;-67
2023/03/31 01:11:25;;;;;;;4.57;2.77;;;;;;;10.85;100.00;99102.56;5039496;28;21031;-68
2023/03/31 01:13:54;;;;;;;6.53;2.30;;;;;;;10.92;100.00;99099.03;5040390;28;21164;-67
2023/03/31 01:16:21;;;;;;;4.40;1.90;;;;;;;10.68;100.00;99091.91;5029485;28;20477;-67
2023/03/31 01:18:49;;;;;;;3.83;1.83;;;;;;;10.87;100.00;99090.69;5045275;28;20496;-67
2023/03/31 01:21:47;;;;;;;2.23;1.70;;;;;;;10.62;100.00;99087.22;5039268;28;20493;-67
2023/03/31 01:25:00;;;;;;;4.60;1.93;;;;;;;10.55;100.00;99084.44;5022241;28;20453;-67
2023/03/31 01:28:00;;;;;;;8.50;2.60;;;;;;;10.76;100.00;99080.34;5038335;28;20494;-67
2023/03/31 01:31:05;;;;;;;5.53;2.13;;;;;;;10.73;100.00;99070.03;5028156;28;20553;-68
2023/03/31 01:33:57;;;;;;;8.33;2.37;;;;;;;10.52;100.00;99068.72;5029149;28;20478;-68
2023/03/31 01:36:46;;;;;;;4.93;2.30;;;;;;;10.44;100.00;99058.03;5033853;28;20623;-67
2023/03/31 01:39:43;;;;;;;4.67;2.40;;;;;;;10.48;100.00;99053.19;5033570;28;20454;-67
2023/03/31 01:42:12;;;;;;;10.93;2.77;;;;;;;10.72;100.00;99050.47;5036489;28;20500;-68
2023/03/31 01:44:44;;;;;;;3.90;2.00;;;;;;;10.88;100.00;99059.44;5036938;28;20507;-67
2023/03/31 01:47:17;;;;;;;8.00;2.23;;;;;;;10.86;100.00;99050.75;5038272;28;21037;-67
2023/03/31 01:49:47;;;;;;;8.37;1.93;;;;;;;10.52;100.00;99036.66;5025264;28;20498;-67
2023/03/31 01:52:19;;;;;;;5.83;1.70;;;;;;;10.65;100.00;99043.31;5044233;28;20497;-66
2023/03/31 01:54:50;;;;;;;5.97;2.33;;;;;;;10.51;100.00;99039.50;5041018;28;21272;-68
2023/03/31 01:57:18;;;;;;;6.97;2.07;;;;;;;10.43;100.00;99037.66;5036727;28;20533;-68
2023/03/31 01:59:55;;;;;;;7.67;2.67;;;;;;;10.72;100.00;99036.25;5050213;28;20497;-67
2023/03/31 02:02:27;;;;;;;5.87;2.53;;;;;;;10.57;100.00;99024.59;5048788;28;20469;-67
2023/03/31 02:04:57;;;;;;;8.70;2.87;;;;;;;10.51;100.00;99015.44;5033629;28;20506;-68
2023/03/31 02:07:27;;;;;;;6.23;2.47;;;;;;;10.62;100.00;99015.06;5029896;28;20482;-67
2023/03/31 02:09:57;;;;;;;4.40;2.63;;;;;;;10.57;100.00;99012.06;5038949;28;20477;-67
2023/03/31 02:12:26;;;;;;;5.70;2.23;;;;;;;10.66;100.00;99008.38;5039188;28;20938;-67
2023/03/31 02:14:55;;;;;;;7.73;1.83;;;;;;;10.68;100.00;99001.03;5034419;28;20487;-68
2023/03/31 02:17:29;;;;;;;5.77;2.10;;;;;;;10.71;100.00;98999.84;5038062;28;20482;-69
2023/03/31 02:19:57;;;;;;;6.23;2.57;;;;;;;10.82;100.00;98994.13;5047788;28;20458;-69
2023/03/31 02:22:26;;;;;;;6.60;2.20;;;;;;;10.83;100.00;98994.94;5039866;28;20604;-69
2023/03/31 02:24:55;;;;;;;6.77;1.87;;;;;;;10.63;100.00;98983.84;5036108;28;20439;-69
2023/03/31 02:27:23;;;;;;;7.33;2.70;;;;;;;10.77;100.00;98982.28;5041563;28;20505;-68
2023/03/31 02:29:50;;;;;;;4.73;1.80;;;;;;;10.80;100.00;98984.59;5038648;28;20545;-68
2023/03/31 02:32:21;;;;;;;5.10;2.00;;;;;;;10.79;100.00;98983.78;5040971;28;20521;-68
2023/03/31 02:34:48;;;;;;;9.67;2.03;;;;;;;10.85;100.00;98977.75;5044051;28;20468;-68
2023/03/31 02:37:15;;;;;;;8.77;2.43;;;;;;;11.05;100.00;98971.97;5041150;28;20939;-68
2023/03/31 02:39:44;;;;;;;5.50;2.00;;;;;;;10.73;100.00;98969.28;5047280;28;20473;-68
2023/03/31 02:42:12;;;;;;;5.20;1.70;;;;;;;10.94;100.00;98962.50;5043638;28;20558;-69
2023/03/31 02:44:39;;;;;;;4.70;2.30;;;;;;;10.97;100.00;98951.47;5042044;28;20451;-69
2023/03/31 02:47:08;;;;;;;3.60;2.03;;;;;;;11.04;100.00;98946.22;5045682;28;20485;-68
2023/03/31 02:49:36;;;;;;;4.20;2.07;;;;;;;11.13;100.00;98942.50;5043983;28;20531;-68
2023/03/31 02:52:23;;;;;;;3.97;1.73;;;;;;;10.91;100.00;98934.25;5041714;28;20494;-68
2023/03/31 02:55:16;;;;;;;6.77;2.40;;;;;;;11.04;100.00;98938.19;5046580;28;20481;-68
2023/03/31 02:58:19;;;;;;;6.73;2.13;;;;;;;11.07;100.00;98929.81;5038616;28;20985;-67
2023/03/31 03:00:56;;;;;;;3.37;2.10;;;;;;;11.14;100.00;98919.25;5038744;28;20519;-68
2023/03/31 03:03:31;;;;;;;6.00;2.13;;;;;;;11.11;100.00;98915.94;5032210;28;20453;-68
2023/03/31 03:06:05;;;;;;;8.17;1.97;;;;;;;11.02;100.00;98900.91;5034749;28;20497;-69
2023/03/31 03:08:41;;;;;;;4.03;1.93;;;;;;;11.24;100.00;98912.66;5041827;28;20488;-68
2023/03/31 03:11:16;;;;;;;6.13;2.00;;;;;;;10.93;100.00;98889.44;5050002;28;20464;-68
2023/03/31 03:13:47;;;;;;;4.93;1.57;;;;;;;11.18;100.00;98893.81;5039922;28;20495;-67
2023/03/31 03:16:18;;;;;;;4.00;1.30;;;;;;;10.91;100.00;98891.47;5033517;28;20517;-66
2023/03/31 03:18:45;;;;;;;7.00;2.77;;;;;;;11.09;100.00;98887.69;5043890;28;20541;-67
2023/03/31 03:21:12;;;;;;;8.23;1.73;;;;;;;10.93;100.00;98892.13;5044365;28;20470;-67
2023/03/31 03:23:38;;;;;;;6.20;1.90;;;;;;;10.92;100.00;98893.16;5032621;28;20490;-67
2023/03/31 03:26:05;;;;;;;2.93;1.40;;;;;;;11.23;100.00;98891.44;5049204;28;20527;-66
2023/03/31 03:28:32;;;;;;;5.33;2.40;;;;;;;11.20;100.00;98886.47;5041293;28;20521;-67
2023/03/31 03:31:00;;;;;;;7.93;1.80;;;;;;;10.93;100.00;98892.13;5041710;28;20506;-68
2023/03/31 03:33:26;;;;;;;7.37;1.87;;;;;;;10.96;100.00;98866.06;5031176;28;20454;-67
2023/03/31 03:35:53;;;;;;;4.00;1.83;;;;;;;10.81;100.00;98853.44;5048159;28;20505;-68
2023/03/31 03:38:20;;;;;;;4.90;1.90;;;;;;;10.88;100.00;98848.22;5033428;28;20979;-68
2023/03/31 03:40:53;;;;;;;7.73;2.00;;;;;;;10.79;100.00;98851.94;5041282;28;20498;-68
2023/03/31 03:43:19;;;;;;;5.20;1.80;;;;;;;10.63;100.00;98851.03;5045037;28;20478;-67
2023/03/31 03:45:47;;;;;;;5.00;2.23;;;;;;;10.59;100.00;98848.88;5042994;28;20524;-67
2023/03/31 03:48:15;;;;;;;5.47;2.63;;;;;;;10.55;100.00;98846.56;5044462;28;20449;-67
2023/03/31 03:50:42;;;;;;;4.20;1.87;;;;;;;10.53;100.00;98831.72;5049608;28;20502;-67
2023/03/31 03:53:09;;;;;;;5.60;2.10;;;;;;;10.75;100.00;98822.06;5038959;28;20480;-68
2023/03/31 03:55:35;;;;;;;9.20;2.17;;;;;;;10.44;100.00;98816.75;5044953;28;21152;-66
2023/03/31 03:58:02;;;;;;;5.60;2.00;;;;;;;10.59;100.00;98809.66;5042012;28;20482;-66
2023/03/31 04:00:29;;;;;;;4.80;1.60;;;;;;;10.50;100.00;98795.50;5036547;28;20462;-67
2023/03/31 04:02:55;;;;;;;7.27;2.07;;;;;;;10.65;100.00;98794.72;5047722;28;20473;-68
2023/03/31 04:05:23;;;;;;;4.37;1.67;;;;;;;10.55;100.00;98800.28;5043648;28;20493;-67
2023/03/31 04:07:50;;;;;;;5.20;2.40;;;;;;;10.59;100.00;98787.41;5040004;28;20489;-67
2023/03/31 04:10:17;;;;;;;11.83;2.10;;;;;;;10.69;100.00;98780.84;5037456;28;20943;-67
2023/03/31 04:12:43;;;;;;;4.43;1.97;;;;;;;10.50;100.00;98774.13;5042307;28;20521;-67
2023/03/31 04:15:12;;;;;;;5.50;1.47;;;;;;;10.65;100.00;98771.50;5041036;28;20476;-68
2023/03/31 04:17:39;;;;;;;6.87;2.10;;;;;;;10.80;100.00;98768.91;5037781;28;20485;-67
2023/03/31 04:20:08;;;;;;;4.60;2.00;;;;;;;10.72;100.00;98774.31;5045064;28;20462;-66
2023/03/31 04:22:39;;;;;;;6.20;2.20;;;;;;;10.81;100.00;98765.19;5040287;28;20485;-66
2023/03/31 04:25:13;;;;;;;6.97;2.13;;;;;;;10.71;100.00;98765.47;5043073;28;20449;-67
2023/03/31 04:27:45;;;;;;;6.37;2.07;;;;;;;10.58;100.00;98757.19;5039527;28;20983;-67
2023/03/31 04:30:13;;;;;;;11.17;2.33;;;;;;;10.80;100.00;98752.00;5035054;28;20478;-66
2023/03/31 04:32:39;;;;;;;3.53;2.10;;;;;;;10.88;100.00;98752.81;5035407;28;20446;-67
2023/03/31 04:35:07;;;;;;;8.00;2.10;;;;;;;10.60;100.00;98743.66;5027652;28;20493;-67
2023/03/31 04:37:33;;;;;;;3.93;1.97;;;;;;;10.60;100.00;98743.66;5034835;28;20473;-67
2023/03/31 04:40:08;;;;;;;4.13;1.83;;;;;;;10.68;100.00;98747.09;5036815;28;20446;-66
2023/03/31 04:42:34;;;;;;;7.53;2.33;;;;;;;10.97;100.00;98740.19;5038600;28;21025;-67
2023/03/31 04:45:01;;;;;;;8.33;2.87;;;;;;;10.78;100.00;98720.13;5040574;28;20512;-67
2023/03/31 04:47:28;;;;;;;4.87;2.27;;;;;;;10.80;100.00;98723.47;5039562;28;20492;-67
2023/03/31 04:49:55;;;;;;;7.07;2.27;;;;;;;10.88;100.00;98715.38;5038504;28;20589;-67
2023/03/31 04:52:22;;;;;;;8.50;2.10;;;;;;;10.54;100.00;98707.78;5038035;28;20470;-68
2023/03/31 04:54:48;;;;;;;5.67;2.13;;;;;;;10.42;100.00;98699.34;5041224;28;20450;-67
2023/03/31 04:57:16;;;;;;;11.53;3.40;;;;;;;10.31;100.00;98695.25;5035848;28;20486;-67
2023/03/31 04:59:43;;;;;;;4.93;2.50;;;;;;;10.22;100.00;98690.94;5038825;28;20481;-68
2023/03/31 05:02:10;;;;;;;5.30;2.70;;;;;;;10.15;100.00;98690.78;5040981;28;20476;-67
2023/03/31 05:04:36;;;;;;;4.20;2.43;;;;;;;10.16;100.00;98683.63;5044767;28;20515;-69
2023/03/31 05:07:03;;;;;;;6.87;2.87;;;;;;;10.25;100.00;98695.91;5042312;28;20517;-75
2023/03/31 05:09:30;;;;;;;5.30;1.97;;;;;;;10.27;100.00;98688.56;5030606;28;20513;-76
2023/03/31 05:11:57;;;;;;;6.23;3.10;;;;;;;10.08;100.00;98687.16;5037380;28;20672;-76
2023/03/31 05:14:25;;;;;;;7.43;2.40;;;;;;;10.28;100.00;98687.56;5027172;28;20482;-76
2023/03/31 05:16:52;;;;;;;8.47;2.57;;;;;;;10.31;100.00;98673.88;5042374;28;20773;-75
2023/03/31 05:19:18;;;;;;;8.37;2.87;;;;;;;10.31;100.00;98668.53;5043322;28;20462;-76
2023/03/31 05:21:45;;;;;;;8.63;2.43;;;;;;;10.40;100.00;98661.31;5041740;28;20549;-76
2023/03/31 05:24:12;;;;;;;6.17;3.30;;;;;;;10.26;100.00;98664.69;5041563;28;20481;-76
2023/03/31 05:26:39;;;;;;;8.13;2.70;;;;;;;10.23;100.00;98651.72;5040478;28;20578;-75
2023/03/31 05:29:06;;;;;;;9.13;2.90;;;;;;;10.08;100.00;98649.78;5041435;28;20485;-76
2023/03/31 05:31:34;;;;;;;5.50;3.00;;;;;;;10.23;100.00;98652.53;5032406;28;20505;-77
2023/03/31 05:34:01;;;;;;;5.90;2.33;;;;;;;10.21;100.00;98645.69;5030045;28;20443;-76
2023/03/31 05:36:28;;;;;;;7.00;3.30;;;;;;;10.26;100.00;98648.66;5038607;28;20476;-76
2023/03/31 05:38:54;;;;;;;7.77;3.23;;;;;;;10.14;100.00;98642.94;5037623;28;20472;-75
2023/03/31 05:41:21;;;;;;;7.07;2.60;;;;;;;10.20;100.00;98644.06;5038261;28;20486;-75
2023/03/31 05:43:48;;;;;;;7.17;2.47;;;;;;;10.23;100.00;98641.03;5046228;28;20606;-75
2023/03/31 05:46:14;;;;;;;9.13;3.00;;;;;;;10.44;100.00;98635.06;5035997;28;20627;-75
2023/03/31 05:48:43;;;;;;;6.77;2.70;;;;;;;10.22;100.00;98626.00;5044478;28;21064;-73
2023/03/31 05:51:10;;;;;;;6.80;2.63;;;;;;;10.21;100.00;98633.19;5038587;28;20486;-75
2023/03/31 05:53:37;;;;;;;7.33;3.03;;;;;;;10.27;100.00;98620.97;5038815;28;20474;-72
2023/03/31 05:56:05;;;;;;;5.73;2.40;;;;;;;10.34;100.00;98621.94;5039007;28;20508;-73
2023/03/31 05:58:34;;;;;;;11.00;3.13;;;;;;;10.26;100.00;98621.97;5034487;28;20465;-74
2023/03/31 06:01:04;;;;;;;7.30;3.20;;;;;;;10.34;100.00;98616.59;5039340;28;20520;-70
2023/03/31 06:03:31;;;;;;;11.57;3.33;;;;;;;10.38;100.00;98599.22;5041117;28;20461;-71
2023/03/31 06:06:00;;;;;;;6.73;2.90;;;;;;;10.45;100.00;98599.28;5049179;28;20505;-71
2023/03/31 06:08:27;;;;;;;7.27;3.70;;;;;;;10.30;100.00;98600.06;5044685;28;20554;-70
2023/03/31 06:10:54;;;;;;;5.37;3.17;;;;;;;10.23;100.00;98604.47;5042370;28;20506;-70
2023/03/31 06:13:20;;;;;;;8.83;3.00;;;;;;;10.13;100.00;98594.00;5043906;28;20532;-70
2023/03/31 06:15:53;;;;;;;7.83;3.30;;;;;;;10.39;100.00;98598.19;5040000;28;20509;-71
2023/03/31 06:18:20;;;;;;;7.00;2.70;;;;;;;10.24;100.00;98574.09;5042324;28;20546;-71
2023/03/31 06:20:46;;;;;;;9.17;3.03;;;;;;;10.40;100.00;98573.16;5043598;28;20473;-70
2023/03/31 06:23:14;;;;;;;7.30;2.97;;;;;;;10.36;100.00;98564.66;5045204;28;20453;-70
2023/03/31 06:25:41;;;;;;;9.40;2.93;;;;;;;10.33;100.00;98573.03;5035719;28;20485;-70
2023/03/31 06:28:08;;;;;;;4.93;2.50;;;;;;;10.25;100.00;98562.38;5044672;28;20551;-71
2023/03/31 06:30:34;;;;;;;4.07;2.30;;;;;;;10.27;100.00;98555.00;5049080;28;20478;-71
2023/03/31 06:33:01;;;;;;;4.67;3.00;;;;;;;10.29;100.00;98550.31;5042890;28;20446;-71
2023/03/31 06:35:28;;;;;;;6.00;3.13;;;;;;;10.27;100.00;98538.16;5042758;28;20481;-71
2023/03/31 06:37:54;;;;;;;6.43;2.33;;;;;;;10.15;100.00;98527.91;5040471;28;20489;-71
2023/03/31 06:40:22;;;;;;;4.30;2.37;;;;;;;10.48;100.00;98527.63;5047138;28;20477;-70
2023/03/31 06:42:49;;;;;;;7.77;3.00;;;;;;;10.35;100.00;98519.44;5036476;28;20495;-71
2023/03/31 06:45:16;;;;;;;10.10;3.00;;;;;;;10.25;100.00;98508.13;5042537;28;20512;-71
2023/03/31 06:47:42;;;;;;;7.13;3.30;;;;;;;10.46;100.00;98510.94;5037093;28;20454;-71
2023/03/31 06:50:10;;;;;;;7.03;2.70;;;;;;;10.66;100.00;98521.94;5041578;28;20517;-70
2023/03/31 06:52:36;;;;;;;9.10;2.73;;;;;;;10.50;100.00;98512.25;5042929;28;20473;-69
2023/03/31 06:55:04;;;;;;;8.97;2.90;;;;;;;10.79;100.00;98515.13;5041373;28;20476;-72
2023/03/31 06:57:33;;;;;;;4.90;2.60;;;;;;;10.64;100.00;98520.47;5033791;28;20490;-70
2023/03/31 06:59:59;;;;;;;5.83;2.67;;;;;;;10.61;100.00;98504.81;5033406;28;20466;-70
2023/03/31 07:02:26;;;;;;;7.60;2.40;;;;;;;10.46;100.00;98492.25;5048408;28;20892;-72
2023/03/31 07:04:53;;;;;;;9.43;2.50;;;;;;;10.29;100.00;98493.41;5045092;28;20458;-72
2023/03/31 07:07:20;;;;;;;3.43;2.20;;;;;;;10.31;100.00;98491.38;5040138;28;20575;-71
2023/03/31 07:09:47;;;;;;;6.37;2.70;;;;;;;10.20;100.00;98479.28;5041885;28;20532;-71
2023/03/31 07:12:13;;;;;;;6.70;2.20;;;;;;;10.44;100.00;98480.94;5044687;28;20493;-71
2023/03/31 07:14:41;;;;;;;8.57;3.07;;;;;;;10.27;100.00;98471.38;5034752;28;20457;-71
2023/03/31 07:17:08;;;;;;;6.90;2.97;;;;;;;10.38;100.00;98476.31;5047769;28;20581;-70
2023/03/31 07:19:36;;;;;;;7.80;2.40;;;;;;;10.28;100.00;98470.38;5043529;28;20466;-71
2023/03/31 07:22:04;;;;;;;5.13;2.63;;;;;;;10.54;100.00;98464.63;5043033;28;20482;-71
2023/03/31 07:24:31;;;;;;;5.70;2.60;;;;;;;10.54;100.00;98462.78;5036254;28;20455;-69
2023/03/31 07:26:58;;;;;;;8.00;2.57;;;;;;;10.89;100.00;98465.69;5036130;28;20474;-71
2023/03/31 07:29:25;;;;;;;6.67;3.47;;;;;;;10.76;100.00;98457.50;5037514;28;21052;-71
2023/03/31 07:31:53;;;;;;;5.97;2.43;;;;;;;10.75;100.00;98453.19;5032407;28;20486;-70
2023/03/31 07:34:20;;;;;;;5.97;2.93;;;;;;;10.71;100.00;98451.88;5051805;28;20450;-72
2023/03/31 07:36:46;;;;;;;3.50;2.27;;;;;;;10.87;100.00;98458.91;5035170;28;20488;-71
2023/03/31 07:39:13;;;;;;;4.60;1.90;;;;;;;10.73;100.00;98449.88;5037272;28;20458;-71
2023/03/31 07:41:40;;;;;;;3.37;2.00;;;;;;;10.84;100.00;98448.56;5047202;28;20553;-71
2023/03/31 07:44:07;;;;;;;6.87;2.10;;;;;;;10.90;100.00;98450.47;5045529;28;20454;-69
2023/03/31 07:46:33;;;;;;;4.50;2.33;;;;;;;11.04;100.00;98438.09;5043812;28;20924;-71
2023/03/31 07:49:02;;;;;;;3.87;2.13;;;;;;;10.83;100.00;98439.72;5034918;28;20477;-71
2023/03/31 07:51:29;;;;;;;4.20;1.87;;;;;;;10.93;100.00;98434.06;5041644;28;20509;-71
2023/03/31 07:53:56;;;;;;;3.70;2.23;;;;;;;11.03;100.00;98423.09;5034715;28;20455;-70
2023/03/31 07:56:24;;;;;;;4.93;2.13;;;;;;;10.92;100.00;98429.75;5032726;28;20470;-71
2023/03/31 07:58:52;;;;;;;8.70;2.17;;;;;;;10.72;100.00;98424.16;5033578;28;20454;-72
2023/03/31 08:01:20;;;;;;;3.40;2.30;;;;;;;10.75;100.00;98413.09;5037193;28;20501;-71
2023/03/31 08:03:48;;;;;;;6.30;2.50;;;;;;;10.77;100.00;98413.72;5043992;28;20970;-72
2023/03/31 08:06:20;;;;;;;3.53;1.40;;;;;;;10.74;100.00;98414.09;5037589;28;20471;-72
2023/03/31 08:08:46;;;;;;;6.00;1.83;;;;;;;10.91;100.00;98422.75;5037905;28;20462;-72
2023/03/31 08:11:13;;;;;;;4.80;2.43;;;;;;;11.06;100.00;98404.00;5038235;28;20495;-72
2023/03/31 08:13:40;;;;;;;3.77;1.70;;;;;;;11.12;100.00;98409.41;5031731;28;20565;-71
2023/03/31 08:16:06;;;;;;;6.07;1.80;;;;;;;11.17;100.00;98410.69;5036397;28;20501;-72
2023/03/31 08:18:33;;;;;;;4.20;1.50;;;;;;;10.98;100.00;98406.78;5037775;28;20453;-72
2023/03/31 08:20:59;;;;;;;2.97;1.60;;;;;;;10.59;100.00;98397.25;5036980;28;20481;-72
2023/03/31 08:23:28;;;;;;;3.23;1.53;;;;;;;10.60;100.00;98402.41;5041195;28;20465;-72
2023/03/31 08:25:54;;;;;;;4.23;1.73;;;;;;;10.57;100.00;98407.31;5036133;28;20547;-72
2023/03/31 08:28:21;;;;;;;4.37;1.70;;;;;;;10.72;100.00;98405.44;5039337;28;20541;-70
2023/03/31 08:30:48;;;;;;;3.80;1.47;;;;;;;10.62;100.00;98407.56;5039073;28;21028;-72
2023/03/31 08:33:14;;;;;;;4.20;1.90;;;;;;;10.62;100.00;98396.88;5041082;28;20455;-71
2023/03/31 08:35:41;;;;;;;4.30;2.00;;;;;;;10.78;100.00;98404.72;5041278;28;20496;-72
2023/03/31 08:38:08;;;;;;;3.80;1.60;;;;;;;11.02;100.00;98395.50;5034570;28;20497;-70
2023/03/31 08:40:37;;;;;;;3.63;1.57;;;;;;;10.74;100.00;98392.72;5027238;28;20474;-71
2023/03/31 08:43:06;;;;;;;4.60;1.70;;;;;;;10.57;100.00;98391.28;5035526;28;20539;-68
2023/03/31 08:45:35;;;;;;;2.60;1.40;;;;;;;10.73;100.00;98396.41;5030987;28;20492;-72
2023/03/31 08:48:06;;;;;;;7.40;1.97;;;;;;;10.52;100.00;98399.88;5035648;28;20957;-72
2023/03/31 08:50:35;;;;;;;2.07;1.50;;;;;;;10.35;100.00;98391.22;5037429;28;20499;-71
2023/03/31 08:53:05;;;;;;;3.33;1.37;;;;;;;10.25;100.00;98391.44;5037727;28;20464;-72
2023/03/31 08:55:39;;;;;;;4.37;1.57;;;;;;;10.39;100.00;98387.16;5038748;28;20476;-70
2023/03/31 08:58:09;;;;;;;3.40;1.67;;;;;;;10.48;100.00;98383.34;5041966;28;20457;-71
2023/03/31 09:00:40;;;;;;;4.10;1.93;;;;;;;10.45;100.00;98383.75;5037890;28;21093;-70
2023/03/31 09:03:15;;;;;;;2.70;1.50;;;;;;;10.20;100.00;98391.16;5040402;28;20493;-71
2023/03/31 09:05:52;;;;;;;4.53;1.80;;;;;;;10.52;100.00;98383.84;5041108;28;20990;-72
2023/03/31 09:08:34;;;;;;;3.70;1.70;;;;;;;10.47;100.00;98387.06;5045896;28;20499;-72
2023/03/31 09:11:08;;;;;;;4.30;1.83;;;;;;;10.43;100.00;98388.41;5041048;28;20557;-72
2023/03/31 09:13:58;;;;;;;5.77;1.60;;;;;;;10.39;100.00;98381.81;5040319;28;20521;-71
2023/03/31 09:16:27;;;;;;;3.83;2.23;;;;;;;10.08;100.00;98366.75;5035936;28;20998;-72
2023/03/31 09:18:55;;;;;;;4.60;2.10;;;;;;;10.34;100.00;98377.00;5040786;28;20458;-70
2023/03/31 09:21:26;;;;;;;5.57;2.50;;;;;;;9.94;100.00;98365.75;5033997;28;20481;-71
2023/03/31 09:23:58;;;;;;;2.40;1.40;;;;;;;10.33;100.00;98369.19;5038281;28;20490;-69
2023/03/31 09:26:32;;;;;;;5.70;1.60;;;;;;;10.48;100.00;98361.97;5040307;28;20469;-70
2023/03/31 09:29:00;;;;;;;2.60;1.20;;;;;;;10.44;100.00;98366.03;5038256;28;20461;-71
2023/03/31 09:31:27;;;;;;;3.23;1.57;;;;;;;10.54;100.00;98363.09;5040380;28;20488;-69
2023/03/31 09:34:00;;;;;;;2.63;1.90;;;;;;;10.69;100.00;98368.41;5036863;28;20462;-71
2023/03/31 09:36:27;;;;;;;1.57;1.47;;;;;;;10.51;100.00;98363.47;5032529;28;20496;-71
2023/03/31 09:38:54;;;;;;;5.07;1.87;;;;;;;10.40;100.00;98364.78;5032962;28;20485;-69
2023/03/31 09:41:20;;;;;;;4.50;1.63;;;;;;;10.50;100.00;98365.31;5040732;28;20481;-71
2023/03/31 09:43:50;;;;;;;6.07;1.90;;;;;;;10.45;100.00;98362.38;5039012;28;20497;-70
2023/03/31 09:46:19;;;;;;;1.47;1.20;;;;;;;10.86;100.00;98355.63;5036357;28;20466;-71
2023/03/31 09:48:54;;;;;;;2.80;1.33;;;;;;;10.65;100.00;98361.78;5020952;28;20451;-71
2023/03/31 09:51:24;;;;;;;1.50;1.17;;;;;;;10.58;100.00;98358.19;5030741;28;20478;-71
2023/03/31 09:53:54;;;;;;;4.60;2.83;;;;;;;10.72;100.00;98357.34;5036836;28;20461;-71
2023/03/31 09:56:34;;;;;;;3.33;1.43;;;;;;;10.37;100.00;98343.75;5036215;28;20473;-71
2023/03/31 09:59:04;;;;;;;3.80;1.77;;;;;;;10.27;100.00;98361.88;5034476;28;20536;-72
2023/03/31 10:01:31;;;;;;;2.30;1.20;;;;;;;10.36;100.00;98353.63;5031453;28;20538;-72
2023/03/31 10:03:58;;;;;;;1.37;1.20;;;;;;;10.58;100.00;98344.84;5034047;28;20458;-66
2023/03/31 10:06:25;;;;;;;2.97;1.40;;;;;;;10.85;100.00;98349.47;5038482;28;20510;-67
2023/03/31 10:08:54;;;;;;;2.43;1.60;;;;;;;10.76;100.00;98339.91;5040376;28;20549;-69
2023/03/31 10:11:22;;;;;;;3.00;1.40;;;;;;;10.93;100.00;98341.31;5035431;28;20478;-69
2023/03/31 10:13:50;;;;;;;3.90;1.90;;;;;;;10.70;100.00;98343.34;5029336;28;20498;-68
2023/03/31 10:16:24;;;;;;;2.70;1.57;;;;;;;10.58;100.00;98343.00;5036119;28;20482;-67
2023/03/31 10:18:51;;;;;;;6.63;1.63;;;;;;;10.85;100.00;98356.66;5033067;28;20457;-68
2023/03/31 10:21:21;;;;;;;3.80;1.60;;;;;;;10.79;100.00;98342.19;5032240;28;20582;-68
2023/03/31 10:23:49;;;;;;;4.40;1.77;;;;;;;11.25;100.00;98346.38;5038348;28;21701;-68
2023/03/31 10:26:18;;;;;;;10.57;1.83;;;;;;;11.32;100.00;98349.94;5044782;28;20500;-70
2023/03/31 10:28:45;;;;;;;5.40;1.70;;;;;;;11.55;100.00;98340.88;5036983;28;20466;-71
2023/03/31 10:31:12;;;;;;;1.87;1.33;;;;;;;11.53;100.00;98337.53;5034237;28;20479;-68
2023/03/31 10:33:44;;;;;;;2.30;1.23;;;;;;;11.44;100.00;98336.84;5035903;28;20870;-68
2023/03/31 10:36:17;;;;;;;2.10;1.40;;;;;;;11.44;100.00;98326.13;5040389;28;20482;-66
2023/03/31 10:38:44;;;;;;;3.13;1.23;;;;;;;11.70;100.00;98328.22;5033190;28;20470;-67
2023/03/31 10:41:12;;;;;;;3.20;1.50;;;;;;;11.65;100.00;98314.59;5032292;28;20473;-67
2023/03/31 10:43:41;;;;;;;6.93;1.23;;;;;;;11.92;100.00;98318.28;5038351;28;20492;-67
2023/03/31 10:46:08;;;;;;;3.50;2.10;;;;;;;12.27;100.00;98307.53;5042126;28;20475;-68
2023/03/31 10:48:37;;;;;;;3.80;1.40;;;;;;;11.99;100.00;98310.28;5034630;28;20491;-67
2023/03/31 10:51:11;;;;;;;3.60;1.70;;;;;;;12.24;100.00;98306.09;5040649;28;20484;-68
2023/03/31 10:53:41;;;;;;;2.97;1.73;;;;;;;12.31;100.00;98310.63;5032256;28;20846;-67
2023/03/31 10:56:33;;;;;;;4.20;1.37;;;;;;;12.23;100.00;98308.97;5041165;28;20575;-67
2023/03/31 10:59:11;;;;;;;3.27;1.50;;;;;;;12.12;100.00;98306.88;5040808;28;20462;-68
2023/03/31 11:01:46;;;;;;;5.70;1.57;;;;;;;12.24;100.00;98307.97;5040731;28;20468;-68
2023/03/31 11:04:43;;;;;;;3.10;1.30;;;;;;;12.20;100.00;98293.28;5041431;28;20441;-67
2023/03/31 11:07:17;;;;;;;4.93;1.90;;;;;;;12.09;100.00;98285.84;5044296;28;20496;-68
2023/03/31 11:09:53;;;;;;;4.50;1.63;;;;;;;12.84;100.00;98292.06;5049205;28;21035;-68
2023/03/31 11:12:22;;;;;;;4.33;1.87;;;;;;;12.46;100.00;98287.22;5023569;28;20493;-67
2023/03/31 11:14:58;;;;;;;3.27;1.70;;;;;;;12.69;100.00;98273.47;5035148;28;20477;-67
2023/03/31 11:17:36;;;;;;;2.63;1.70;;;;;;;12.72;100.00;98280.28;5036025;28;20476;-69
2023/03/31 11:20:11;;;;;;;5.20;2.60;;;;;;;12.96;100.00;98265.47;5044392;28;20489;-67
2023/03/31 11:22:45;;;;;;;6.13;2.67;;;;;;;12.61;100.00;98271.78;5019090;28;20577;-67
2023/03/31 11:25:26;;;;;;;5.17;1.90;;;;;;;12.74;100.00;98260.28;5011992;28;20451;-67
2023/03/31 11:28:03;;;;;;;4.13;2.57;;;;;;;12.73;100.00;98263.97;5047774;28;20678;-68
2023/03/31 11:30:33;;;;;;;4.10;2.37;;;;;;;12.70;100.00;98259.03;5041024;28;20465;-68
2023/03/31 11:33:13;;;;;;;7.10;2.70;;;;;;;12.51;100.00;98259.81;5031823;28;20485;-67
2023/03/31 11:35:47;;;;;;;5.50;2.40;;;;;;;12.78;100.00;98245.44;5039649;28;20469;-66
2023/03/31 11:38:32;;;;;;;3.77;2.73;;;;;;;12.55;100.00;98243.13;5040962;28;20458;-68